sensor_id;sensor_type;location;lat;lon;timestamp;temperature;humidity
39655;DHT22;25336;59.944;11.010;2022-12-15T00:00:11;-11.80;63.90
39655;DHT22;25336;59.944;11.010;2022-12-15T00:02:55;-11.80;63.90
39655;DHT22;25336;59.944;11.010;2022-12-15T00:05:39;-11.80;64.00
39655;DHT22;25336;59.944;11.010;2022-12-15T00:08:24;-10.80;64.70
39655;DHT22;25336;59.944;11.010;2022-12-15T00:11:08;-11.80;64.20
39655;DHT22;25336;59.944;11.010;2022-12-15T00:13:52;-11.80;64.30
39655;DHT22;25336;59.944;11.010;2022-12-15T00:16:36;-11.80;64.40
39655;DHT22;25336;59.944;11.010;2022-12-15T00:19:21;-11.70;64.60
39655;DHT22;25336;59.944;11.010;2022-12-15T00:22:05;-9.80;65.90
39655;DHT22;25336;59.944;11.010;2022-12-15T00:24:50;-11.70;64.70
39655;DHT22;25336;59.944;11.010;2022-12-15T00:27:34;-10.80;65.30
39655;DHT22;25336;59.944;11.010;2022-12-15T00:30:18;-11.70;64.70
39655;DHT22;25336;59.944;11.010;2022-12-15T00:33:10;-11.60;64.80
39655;DHT22;25336;59.944;11.010;2022-12-15T00:35:56;-10.50;65.40
39655;DHT22;25336;59.944;11.010;2022-12-15T00:38:41;-10.50;65.50
39655;DHT22;25336;59.944;11.010;2022-12-15T00:41:09;-10.30;65.50
39655;DHT22;25336;59.944;11.010;2022-12-15T00:43:35;-11.50;64.70
39655;DHT22;25336;59.944;11.010;2022-12-15T00:46:02;-10.50;65.30
39655;DHT22;25336;59.944;11.010;2022-12-15T00:48:46;-9.90;65.60
39655;DHT22;25336;59.944;11.010;2022-12-15T00:51:12;-11.40;64.70
39655;DHT22;25336;59.944;11.010;2022-12-15T00:53:38;-10.20;65.50
39655;DHT22;25336;59.944;11.010;2022-12-15T00:56:25;-11.40;64.70
39655;DHT22;25336;59.944;11.010;2022-12-15T00:59:10;-10.40;65.40
39655;DHT22;25336;59.944;11.010;2022-12-15T01:01:55;-10.50;65.40
39655;DHT22;25336;59.944;11.010;2022-12-15T01:04:39;-10.30;65.40
39655;DHT22;25336;59.944;11.010;2022-12-15T01:07:23;-11.30;64.70
39655;DHT22;25336;59.944;11.010;2022-12-15T01:10:08;-9.70;66.30
39655;DHT22;25336;59.944;11.010;2022-12-15T01:12:52;-11.20;64.40
39655;DHT22;25336;59.944;11.010;2022-12-15T01:15:37;-9.50;65.30
39655;DHT22;25336;59.944;11.010;2022-12-15T01:18:22;-11.20;64.10
39655;DHT22;25336;59.944;11.010;2022-12-15T01:21:09;-11.20;64.00
39655;DHT22;25336;59.944;11.010;2022-12-15T01:23:36;-10.10;64.60
39655;DHT22;25336;59.944;11.010;2022-12-15T01:26:02;-10.40;64.30
39655;DHT22;25336;59.944;11.010;2022-12-15T01:28:28;-10.80;64.10
39655;DHT22;25336;59.944;11.010;2022-12-15T01:30:54;-11.20;63.80
39655;DHT22;25336;59.944;11.010;2022-12-15T01:33:20;-11.20;63.90
39655;DHT22;25336;59.944;11.010;2022-12-15T01:35:55;-9.60;64.90
39655;DHT22;25336;59.944;11.010;2022-12-15T01:38:21;-11.20;64.00
39655;DHT22;25336;59.944;11.010;2022-12-15T01:41:08;-11.10;64.10
39655;DHT22;25336;59.944;11.010;2022-12-15T01:43:36;-11.10;64.20
39655;DHT22;25336;59.944;11.010;2022-12-15T01:48:41;-11.00;64.30
39655;DHT22;25336;59.944;11.010;2022-12-15T01:51:24;-9.90;65.00
39655;DHT22;25336;59.944;11.010;2022-12-15T01:53:59;-11.00;64.20
39655;DHT22;25336;59.944;11.010;2022-12-15T01:56:28;-10.90;64.20
39655;DHT22;25336;59.944;11.010;2022-12-15T01:58:59;-12.20;63.20
39655;DHT22;25336;59.944;11.010;2022-12-15T02:01:26;-10.90;64.00
39655;DHT22;25336;59.944;11.010;2022-12-15T02:03:52;-10.90;64.00
39655;DHT22;25336;59.944;11.010;2022-12-15T02:06:18;-9.00;65.30
39655;DHT22;25336;59.944;11.010;2022-12-15T02:08:48;-10.90;64.10
39655;DHT22;25336;59.944;11.010;2022-12-15T02:20:07;-10.70;64.60
39655;DHT22;25336;59.944;11.010;2022-12-15T02:25:49;-10.60;65.40
39655;DHT22;25336;59.944;11.010;2022-12-15T02:28:55;-11.30;64.20
39655;DHT22;25336;59.944;11.010;2022-12-15T02:31:29;-10.50;64.70
39655;DHT22;25336;59.944;11.010;2022-12-15T02:37:04;-10.40;64.80
39655;DHT22;25336;59.944;11.010;2022-12-15T02:39:32;-10.30;64.80
39655;DHT22;25336;59.944;11.010;2022-12-15T02:41:58;-10.30;64.80
39655;DHT22;25336;59.944;11.010;2022-12-15T02:44:33;-9.70;65.20
39655;DHT22;25336;59.944;11.010;2022-12-15T02:58:00;-9.00;65.40
39655;DHT22;25336;59.944;11.010;2022-12-15T03:00:28;-9.10;65.30
39655;DHT22;25336;59.944;11.010;2022-12-15T03:02:55;-9.90;64.80
39655;DHT22;25336;59.944;11.010;2022-12-15T03:05:23;-9.90;64.60
39655;DHT22;25336;59.944;11.010;2022-12-15T03:07:50;-9.90;64.60
39655;DHT22;25336;59.944;11.010;2022-12-15T03:10:19;-9.80;64.60
39655;DHT22;25336;59.944;11.010;2022-12-15T03:12:46;-9.80;64.50
39655;DHT22;25336;59.944;11.010;2022-12-15T03:15:12;-9.70;64.50
39655;DHT22;25336;59.944;11.010;2022-12-15T03:17:37;-9.80;64.50
39655;DHT22;25336;59.944;11.010;2022-12-15T03:20:04;-9.60;64.60
39655;DHT22;25336;59.944;11.010;2022-12-15T03:22:30;-9.60;64.70
39655;DHT22;25336;59.944;11.010;2022-12-15T03:24:56;-9.60;64.70
39655;DHT22;25336;59.944;11.010;2022-12-15T03:27:22;-9.50;64.80
39655;DHT22;25336;59.944;11.010;2022-12-15T03:29:48;-9.50;64.80
39655;DHT22;25336;59.944;11.010;2022-12-15T03:32:13;-9.40;64.70
39655;DHT22;25336;59.944;11.010;2022-12-15T03:34:39;-9.40;64.50
39655;DHT22;25336;59.944;11.010;2022-12-15T03:37:05;-9.40;64.40
39655;DHT22;25336;59.944;11.010;2022-12-15T03:39:30;-9.30;64.10
39655;DHT22;25336;59.944;11.010;2022-12-15T03:41:56;-9.40;63.90
39655;DHT22;25336;59.944;11.010;2022-12-15T03:44:21;-9.40;63.80
39655;DHT22;25336;59.944;11.010;2022-12-15T03:46:47;-9.30;63.90
39655;DHT22;25336;59.944;11.010;2022-12-15T03:49:12;-9.40;63.80
39655;DHT22;25336;59.944;11.010;2022-12-15T03:51:38;-9.30;63.90
39655;DHT22;25336;59.944;11.010;2022-12-15T03:54:04;-9.40;63.80
39655;DHT22;25336;59.944;11.010;2022-12-15T03:56:30;-9.00;64.10
39655;DHT22;25336;59.944;11.010;2022-12-15T03:58:56;-9.30;64.00
39655;DHT22;25336;59.944;11.010;2022-12-15T04:01:30;-9.30;64.00
39655;DHT22;25336;59.944;11.010;2022-12-15T04:03:56;-9.30;64.10
39655;DHT22;25336;59.944;11.010;2022-12-15T04:06:22;-9.30;64.10
39655;DHT22;25336;59.944;11.010;2022-12-15T04:08:48;-10.50;63.20
39655;DHT22;25336;59.944;11.010;2022-12-15T04:11:14;-9.30;63.90
39655;DHT22;25336;59.944;11.010;2022-12-15T04:13:40;-9.30;63.90
39655;DHT22;25336;59.944;11.010;2022-12-15T04:16:06;-9.30;63.90
39655;DHT22;25336;59.944;11.010;2022-12-15T04:18:32;-9.30;64.00
39655;DHT22;25336;59.944;11.010;2022-12-15T04:20:57;-9.30;64.00
39655;DHT22;25336;59.944;11.010;2022-12-15T04:23:23;-9.30;64.00
39655;DHT22;25336;59.944;11.010;2022-12-15T04:25:49;-9.30;64.10
39655;DHT22;25336;59.944;11.010;2022-12-15T04:28:33;-9.30;64.20
39655;DHT22;25336;59.944;11.010;2022-12-15T04:31:21;-9.30;64.20
39655;DHT22;25336;59.944;11.010;2022-12-15T04:34:10;-9.30;64.10
39655;DHT22;25336;59.944;11.010;2022-12-15T04:36:57;-9.40;63.90
39655;DHT22;25336;59.944;11.010;2022-12-15T04:39:43;-9.30;63.90
39655;DHT22;25336;59.944;11.010;2022-12-15T04:42:29;-9.40;63.80
39655;DHT22;25336;59.944;11.010;2022-12-15T04:45:17;-9.40;63.80
39655;DHT22;25336;59.944;11.010;2022-12-15T04:48:02;-9.20;63.60
39655;DHT22;25336;59.944;11.010;2022-12-15T04:50:47;-9.50;63.30
39655;DHT22;25336;59.944;11.010;2022-12-15T04:53:31;-9.10;63.80
39655;DHT22;25336;59.944;11.010;2022-12-15T04:56:16;-9.60;63.50
39655;DHT22;25336;59.944;11.010;2022-12-15T04:59:00;-9.60;63.50
39655;DHT22;25336;59.944;11.010;2022-12-15T05:01:45;-9.70;63.50
39655;DHT22;25336;59.944;11.010;2022-12-15T05:04:29;-9.80;63.40
39655;DHT22;25336;59.944;11.010;2022-12-15T05:07:14;-9.80;63.40
39655;DHT22;25336;59.944;11.010;2022-12-15T05:09:59;-9.90;63.50
39655;DHT22;25336;59.944;11.010;2022-12-15T05:12:43;-9.90;63.80
39655;DHT22;25336;59.944;11.010;2022-12-15T05:15:28;-9.90;63.90
39655;DHT22;25336;59.944;11.010;2022-12-15T05:18:12;-9.90;63.90
39655;DHT22;25336;59.944;11.010;2022-12-15T05:20:58;-9.90;63.90
39655;DHT22;25336;59.944;11.010;2022-12-15T05:23:42;-9.30;64.30
39655;DHT22;25336;59.944;11.010;2022-12-15T05:26:26;-9.90;63.90
39655;DHT22;25336;59.944;11.010;2022-12-15T05:29:10;-9.90;63.90
39655;DHT22;25336;59.944;11.010;2022-12-15T05:31:55;-9.90;63.90
39655;DHT22;25336;59.944;11.010;2022-12-15T05:34:23;-9.90;63.90
39655;DHT22;25336;59.944;11.010;2022-12-15T05:36:51;-9.90;63.90
39655;DHT22;25336;59.944;11.010;2022-12-15T05:39:16;-9.90;64.00
39655;DHT22;25336;59.944;11.010;2022-12-15T05:41:42;-9.90;64.80
39655;DHT22;25336;59.944;11.010;2022-12-15T05:44:08;-9.90;64.00
39655;DHT22;25336;59.944;11.010;2022-12-15T05:46:34;-9.90;64.00
39655;DHT22;25336;59.944;11.010;2022-12-15T05:49:03;-9.90;63.90
39655;DHT22;25336;59.944;11.010;2022-12-15T05:51:29;-9.90;64.00
39655;DHT22;25336;59.944;11.010;2022-12-15T05:53:55;-9.90;64.00
39655;DHT22;25336;59.944;11.010;2022-12-15T05:56:20;-9.80;64.10
39655;DHT22;25336;59.944;11.010;2022-12-15T05:58:46;-9.80;64.10
39655;DHT22;25336;59.944;11.010;2022-12-15T06:01:17;-9.80;64.10
39655;DHT22;25336;59.944;11.010;2022-12-15T06:03:43;-9.80;64.10
39655;DHT22;25336;59.944;11.010;2022-12-15T06:06:11;-9.80;64.00
39655;DHT22;25336;59.944;11.010;2022-12-15T06:08:40;-8.30;65.00
39655;DHT22;25336;59.944;11.010;2022-12-15T06:11:06;-9.60;64.30
39655;DHT22;25336;59.944;11.010;2022-12-15T06:13:32;-9.80;64.80
39655;DHT22;25336;59.944;11.010;2022-12-15T06:16:03;-8.90;64.60
39655;DHT22;25336;59.944;11.010;2022-12-15T06:18:34;-7.80;65.30
39655;DHT22;25336;59.944;11.010;2022-12-15T06:21:08;-9.80;63.90
39655;DHT22;25336;59.944;11.010;2022-12-15T06:23:34;-9.80;63.90
39655;DHT22;25336;59.944;11.010;2022-12-15T06:26:11;-9.90;63.80
39655;DHT22;25336;59.944;11.010;2022-12-15T06:28:38;-9.80;63.90
39655;DHT22;25336;59.944;11.010;2022-12-15T06:31:07;-9.90;63.80
39655;DHT22;25336;59.944;11.010;2022-12-15T06:33:33;-9.90;63.80
39655;DHT22;25336;59.944;11.010;2022-12-15T06:36:17;-9.90;63.70
39655;DHT22;25336;59.944;11.010;2022-12-15T06:38:44;-9.90;63.70
39655;DHT22;25336;59.944;11.010;2022-12-15T06:41:11;-9.90;63.80
39655;DHT22;25336;59.944;11.010;2022-12-15T06:43:38;-11.00;63.80
39655;DHT22;25336;59.944;11.010;2022-12-15T06:46:04;-9.90;63.80
39655;DHT22;25336;59.944;11.010;2022-12-15T06:48:30;-9.90;63.70
39655;DHT22;25336;59.944;11.010;2022-12-15T06:51:00;-9.90;63.60
39655;DHT22;25336;59.944;11.010;2022-12-15T06:53:26;-9.90;63.50
39655;DHT22;25336;59.944;11.010;2022-12-15T06:55:51;-10.00;63.30
39655;DHT22;25336;59.944;11.010;2022-12-15T06:58:17;-8.70;64.10
39655;DHT22;25336;59.944;11.010;2022-12-15T07:00:44;-8.90;63.90
39655;DHT22;25336;59.944;11.010;2022-12-15T07:03:16;-10.10;63.10
39655;DHT22;25336;59.944;11.010;2022-12-15T07:05:43;-10.10;62.90
39655;DHT22;25336;59.944;11.010;2022-12-15T07:08:18;-8.70;63.90
39655;DHT22;25336;59.944;11.010;2022-12-15T07:10:43;-8.80;63.80
39655;DHT22;25336;59.944;11.010;2022-12-15T07:13:11;-9.30;63.40
39655;DHT22;25336;59.944;11.010;2022-12-15T07:15:37;-10.00;63.10
39655;DHT22;25336;59.944;11.010;2022-12-15T07:18:03;-9.30;63.70
39655;DHT22;25336;59.944;11.010;2022-12-15T07:20:29;-11.40;62.30
39655;DHT22;25336;59.944;11.010;2022-12-15T07:22:57;-10.00;63.30
39655;DHT22;25336;59.944;11.010;2022-12-15T07:25:22;-10.30;63.10
39655;DHT22;25336;59.944;11.010;2022-12-15T07:27:48;-9.10;63.90
39655;DHT22;25336;59.944;11.010;2022-12-15T07:30:14;-10.40;63.20
39655;DHT22;25336;59.944;11.010;2022-12-15T07:32:41;-10.40;63.30
39655;DHT22;25336;59.944;11.010;2022-12-15T07:35:09;-10.40;63.20
39655;DHT22;25336;59.944;11.010;2022-12-15T07:37:34;-10.50;63.00
39655;DHT22;25336;59.944;11.010;2022-12-15T07:40:02;-10.50;62.90
39655;DHT22;25336;59.944;11.010;2022-12-15T07:42:29;-10.50;62.70
39655;DHT22;25336;59.944;11.010;2022-12-15T07:44:55;-10.60;62.60
39655;DHT22;25336;59.944;11.010;2022-12-15T07:47:20;-10.60;62.60
39655;DHT22;25336;59.944;11.010;2022-12-15T07:49:46;-10.60;62.70
39655;DHT22;25336;59.944;11.010;2022-12-15T07:52:12;-10.70;62.70
39655;DHT22;25336;59.944;11.010;2022-12-15T07:54:39;-10.60;62.80
39655;DHT22;25336;59.944;11.010;2022-12-15T07:57:05;-10.70;63.00
39655;DHT22;25336;59.944;11.010;2022-12-15T07:59:32;-10.80;62.90
39655;DHT22;25336;59.944;11.010;2022-12-15T08:01:58;-10.80;63.10
39655;DHT22;25336;59.944;11.010;2022-12-15T08:04:25;-10.80;63.40
39655;DHT22;25336;59.944;11.010;2022-12-15T08:06:52;-10.80;63.40
39655;DHT22;25336;59.944;11.010;2022-12-15T08:09:18;-10.80;63.60
39655;DHT22;25336;59.944;11.010;2022-12-15T08:11:44;-10.80;63.60
39655;DHT22;25336;59.944;11.010;2022-12-15T08:14:10;-10.80;64.50
39655;DHT22;25336;59.944;11.010;2022-12-15T08:16:35;-11.90;63.10
39655;DHT22;25336;59.944;11.010;2022-12-15T08:19:05;-9.10;65.00
39655;DHT22;25336;59.944;11.010;2022-12-15T08:21:32;-10.80;64.00
39655;DHT22;25336;59.944;11.010;2022-12-15T08:23:58;-9.30;65.00
39655;DHT22;25336;59.944;11.010;2022-12-15T08:26:25;-10.70;63.90
39655;DHT22;25336;59.944;11.010;2022-12-15T08:28:51;-8.90;65.00
39655;DHT22;25336;59.944;11.010;2022-12-15T08:31:21;-10.80;63.60
39655;DHT22;25336;59.944;11.010;2022-12-15T08:33:47;-9.40;64.40
39655;DHT22;25336;59.944;11.010;2022-12-15T08:36:15;-12.10;62.50
39655;DHT22;25336;59.944;11.010;2022-12-15T08:38:43;-10.30;63.80
39655;DHT22;25336;59.944;11.010;2022-12-15T08:41:22;-10.80;63.60
39655;DHT22;25336;59.944;11.010;2022-12-15T08:43:49;-10.80;63.60
39655;DHT22;25336;59.944;11.010;2022-12-15T08:46:16;-10.80;63.80
39655;DHT22;25336;59.944;11.010;2022-12-15T08:48:42;-10.70;63.90
39655;DHT22;25336;59.944;11.010;2022-12-15T08:51:08;-10.70;63.90
39655;DHT22;25336;59.944;11.010;2022-12-15T08:53:34;-10.70;63.90
39655;DHT22;25336;59.944;11.010;2022-12-15T08:56:07;-9.70;64.60
39655;DHT22;25336;59.944;11.010;2022-12-15T08:58:34;-10.70;63.90
39655;DHT22;25336;59.944;11.010;2022-12-15T09:01:05;-10.60;63.90
39655;DHT22;25336;59.944;11.010;2022-12-15T09:03:32;-10.60;63.90
39655;DHT22;25336;59.944;11.010;2022-12-15T09:06:06;-10.60;63.80
39655;DHT22;25336;59.944;11.010;2022-12-15T09:08:33;-10.50;63.80
39655;DHT22;25336;59.944;11.010;2022-12-15T09:11:00;-10.50;63.90
39655;DHT22;25336;59.944;11.010;2022-12-15T09:13:26;-10.50;64.00
39655;DHT22;25336;59.944;11.010;2022-12-15T09:15:59;-9.40;64.90
39655;DHT22;25336;59.944;11.010;2022-12-15T09:18:25;-10.50;64.50
39655;DHT22;25336;59.944;11.010;2022-12-15T09:20:51;-10.40;64.70
39655;DHT22;25336;59.944;11.010;2022-12-15T09:23:18;-10.40;64.80
39655;DHT22;25336;59.944;11.010;2022-12-15T09:25:44;-9.40;65.60
39655;DHT22;25336;59.944;11.010;2022-12-15T09:28:11;-8.90;66.00
39655;DHT22;25336;59.944;11.010;2022-12-15T09:30:36;-9.20;65.70
39655;DHT22;25336;59.944;11.010;2022-12-15T09:33:02;-10.40;64.70
39655;DHT22;25336;59.944;11.010;2022-12-15T09:35:29;-9.80;64.90
39655;DHT22;25336;59.944;11.010;2022-12-15T09:37:58;-8.70;65.60
39655;DHT22;25336;59.944;11.010;2022-12-15T09:40:24;-10.40;64.40
39655;DHT22;25336;59.944;11.010;2022-12-15T09:42:52;-10.40;64.30
39655;DHT22;25336;59.944;11.010;2022-12-15T09:45:24;-10.40;64.30
39655;DHT22;25336;59.944;11.010;2022-12-15T09:48:05;-10.40;64.10
39655;DHT22;25336;59.944;11.010;2022-12-15T09:50:36;-10.40;64.00
39655;DHT22;25336;59.944;11.010;2022-12-15T09:53:04;-8.60;65.00
39655;DHT22;25336;59.944;11.010;2022-12-15T09:55:33;-10.10;64.10
39655;DHT22;25336;59.944;11.010;2022-12-15T09:58:24;-10.50;64.00
39655;DHT22;25336;59.944;11.010;2022-12-15T10:04:16;-10.50;64.10
39655;DHT22;25336;59.944;11.010;2022-12-15T10:06:56;-10.50;64.10
39655;DHT22;25336;59.944;11.010;2022-12-15T10:09:29;-10.10;64.60
39655;DHT22;25336;59.944;11.010;2022-12-15T10:12:19;-9.90;64.80
39655;DHT22;25336;59.944;11.010;2022-12-15T10:17:57;-10.40;64.80
39655;DHT22;25336;59.944;11.010;2022-12-15T10:20:26;-10.30;65.60
39655;DHT22;25336;59.944;11.010;2022-12-15T10:22:55;-10.30;64.90
39655;DHT22;25336;59.944;11.010;2022-12-15T10:25:26;-10.20;64.90
39655;DHT22;25336;59.944;11.010;2022-12-15T10:31:00;-10.20;64.80
39655;DHT22;25336;59.944;11.010;2022-12-15T10:33:34;-10.20;64.80
39655;DHT22;25336;59.944;11.010;2022-12-15T10:36:04;-10.10;64.80
39655;DHT22;25336;59.944;11.010;2022-12-15T10:38:32;-10.20;64.60
39655;DHT22;25336;59.944;11.010;2022-12-15T10:41:01;-10.10;64.60
39655;DHT22;25336;59.944;11.010;2022-12-15T10:43:42;-8.90;65.30
39655;DHT22;25336;59.944;11.010;2022-12-15T10:46:12;-10.60;64.00
39655;DHT22;25336;59.944;11.010;2022-12-15T10:48:40;-10.10;64.30
39655;DHT22;25336;59.944;11.010;2022-12-15T10:51:19;-10.10;64.40
39655;DHT22;25336;59.944;11.010;2022-12-15T10:53:52;-9.40;64.80
39655;DHT22;25336;59.944;11.010;2022-12-15T10:56:27;-10.10;64.10
39655;DHT22;25336;59.944;11.010;2022-12-15T10:58:55;-9.10;64.60
39655;DHT22;25336;59.944;11.010;2022-12-15T11:01:30;-10.10;64.00
39655;DHT22;25336;59.944;11.010;2022-12-15T11:03:56;-10.20;64.20
39655;DHT22;25336;59.944;11.010;2022-12-15T11:06:31;-10.10;64.20
39655;DHT22;25336;59.944;11.010;2022-12-15T11:09:08;-10.10;64.30
39655;DHT22;25336;59.944;11.010;2022-12-15T11:11:36;-10.10;64.40
39655;DHT22;25336;59.944;11.010;2022-12-15T11:17:12;-10.10;64.30
39655;DHT22;25336;59.944;11.010;2022-12-15T11:22:16;-10.10;64.20
39655;DHT22;25336;59.944;11.010;2022-12-15T11:24:51;-10.10;64.10
39655;DHT22;25336;59.944;11.010;2022-12-15T11:27:26;-10.10;64.00
39655;DHT22;25336;59.944;11.010;2022-12-15T11:30:16;-10.10;64.00
39655;DHT22;25336;59.944;11.010;2022-12-15T11:32:54;-10.10;64.10
39655;DHT22;25336;59.944;11.010;2022-12-15T11:35:32;-10.10;64.20
39655;DHT22;25336;59.944;11.010;2022-12-15T11:40:56;-10.10;64.20
39655;DHT22;25336;59.944;11.010;2022-12-15T11:46:21;-10.00;65.30
39655;DHT22;25336;59.944;11.010;2022-12-15T11:51:58;-10.00;64.70
39655;DHT22;25336;59.944;11.010;2022-12-15T12:00:21;-9.90;65.10
39655;DHT22;25336;59.944;11.010;2022-12-15T12:03:00;-9.90;65.20
39655;DHT22;25336;59.944;11.010;2022-12-15T12:10:58;-9.70;65.40
39655;DHT22;25336;59.944;11.010;2022-12-15T12:13:41;-9.80;65.20
39655;DHT22;25336;59.944;11.010;2022-12-15T12:19:30;-9.70;65.30
39655;DHT22;25336;59.944;11.010;2022-12-15T12:22:06;-9.70;65.20
39655;DHT22;25336;59.944;11.010;2022-12-15T12:25:22;-9.60;65.40
39655;DHT22;25336;59.944;11.010;2022-12-15T12:30:24;-9.60;65.50
39655;DHT22;25336;59.944;11.010;2022-12-15T12:32:52;-9.60;65.40
39655;DHT22;25336;59.944;11.010;2022-12-15T12:35:47;-9.60;65.40
39655;DHT22;25336;59.944;11.010;2022-12-15T12:38:12;-7.80;66.50
39655;DHT22;25336;59.944;11.010;2022-12-15T12:41:06;-9.50;65.30
39655;DHT22;25336;59.944;11.010;2022-12-15T12:43:37;-9.50;65.20
39655;DHT22;25336;59.944;11.010;2022-12-15T12:46:15;-9.50;65.00
39655;DHT22;25336;59.944;11.010;2022-12-15T12:49:15;-9.50;64.90
39655;DHT22;25336;59.944;11.010;2022-12-15T12:51:55;-9.40;65.10
39655;DHT22;25336;59.944;11.010;2022-12-15T12:56:58;-9.50;65.10
39655;DHT22;25336;59.944;11.010;2022-12-15T13:01:56;-9.50;64.90
39655;DHT22;25336;59.944;11.010;2022-12-15T13:07:02;-9.60;64.40
39655;DHT22;25336;59.944;11.010;2022-12-15T13:09:42;-9.60;64.30
39655;DHT22;25336;59.944;11.010;2022-12-15T13:15:11;-9.60;64.20
39655;DHT22;25336;59.944;11.010;2022-12-15T13:17:47;-8.80;64.70
39655;DHT22;25336;59.944;11.010;2022-12-15T13:20:19;-9.70;64.10
39655;DHT22;25336;59.944;11.010;2022-12-15T13:22:46;-9.70;64.20
39655;DHT22;25336;59.944;11.010;2022-12-15T13:28:02;-9.70;64.40
39655;DHT22;25336;59.944;11.010;2022-12-15T13:34:13;-9.70;64.80
39655;DHT22;25336;59.944;11.010;2022-12-15T13:46:46;-9.60;65.30
39655;DHT22;25336;59.944;11.010;2022-12-15T13:49:15;-9.50;65.40
39655;DHT22;25336;59.944;11.010;2022-12-15T13:51:44;-9.50;65.40
39655;DHT22;25336;59.944;11.010;2022-12-15T13:54:22;-9.50;65.30
39655;DHT22;25336;59.944;11.010;2022-12-15T13:56:56;-9.50;65.10
39655;DHT22;25336;59.944;11.010;2022-12-15T13:59:33;-7.60;66.30
39655;DHT22;25336;59.944;11.010;2022-12-15T14:02:01;-9.40;65.20
39655;DHT22;25336;59.944;11.010;2022-12-15T14:04:26;-9.30;65.20
39655;DHT22;25336;59.944;11.010;2022-12-15T14:06:57;-9.20;65.10
39655;DHT22;25336;59.944;11.010;2022-12-15T14:09:30;-7.40;66.30
39655;DHT22;25336;59.944;11.010;2022-12-15T14:11:57;-9.30;65.30
39655;DHT22;25336;59.944;11.010;2022-12-15T14:14:34;-8.60;65.70
39655;DHT22;25336;59.944;11.010;2022-12-15T14:17:05;-9.20;65.40
39655;DHT22;25336;59.944;11.010;2022-12-15T14:19:37;-9.00;65.50
39655;DHT22;25336;59.944;11.010;2022-12-15T14:22:03;-9.20;65.30
39655;DHT22;25336;59.944;11.010;2022-12-15T14:24:43;-9.10;65.40
39655;DHT22;25336;59.944;11.010;2022-12-15T14:27:21;-9.10;65.30
39655;DHT22;25336;59.944;11.010;2022-12-15T14:29:47;-9.10;65.20
39655;DHT22;25336;59.944;11.010;2022-12-15T14:32:13;-9.10;65.20
39655;DHT22;25336;59.944;11.010;2022-12-15T14:34:40;-7.90;65.80
39655;DHT22;25336;59.944;11.010;2022-12-15T14:37:10;-9.10;64.90
39655;DHT22;25336;59.944;11.010;2022-12-15T14:39:42;-9.00;64.90
39655;DHT22;25336;59.944;11.010;2022-12-15T14:42:24;-9.10;64.70
39655;DHT22;25336;59.944;11.010;2022-12-15T14:44:50;-9.00;64.60
39655;DHT22;25336;59.944;11.010;2022-12-15T14:47:28;-9.00;64.50
39655;DHT22;25336;59.944;11.010;2022-12-15T14:49:56;-9.90;64.10
39655;DHT22;25336;59.944;11.010;2022-12-15T14:52:38;-9.00;64.80
39655;DHT22;25336;59.944;11.010;2022-12-15T14:55:37;-9.00;65.10
39655;DHT22;25336;59.944;11.010;2022-12-15T15:00:53;-8.90;65.50
39655;DHT22;25336;59.944;11.010;2022-12-15T15:03:25;-9.90;65.20
39655;DHT22;25336;59.944;11.010;2022-12-15T15:05:54;-8.80;66.30
39655;DHT22;25336;59.944;11.010;2022-12-15T15:11:01;-8.70;67.00
39655;DHT22;25336;59.944;11.010;2022-12-15T15:13:45;-8.70;67.20
39655;DHT22;25336;59.944;11.010;2022-12-15T15:16:16;-8.60;67.40
39655;DHT22;25336;59.944;11.010;2022-12-15T15:18:43;-8.50;67.50
39655;DHT22;25336;59.944;11.010;2022-12-15T15:21:19;-8.40;67.70
39655;DHT22;25336;59.944;11.010;2022-12-15T15:26:30;-8.30;67.70
39655;DHT22;25336;59.944;11.010;2022-12-15T15:28:55;-8.30;67.40
39655;DHT22;25336;59.944;11.010;2022-12-15T15:33:52;-8.20;66.90
39655;DHT22;25336;59.944;11.010;2022-12-15T15:36:19;-8.20;66.80
39655;DHT22;25336;59.944;11.010;2022-12-15T15:38:46;-8.20;66.50
39655;DHT22;25336;59.944;11.010;2022-12-15T15:43:44;-6.80;66.80
39655;DHT22;25336;59.944;11.010;2022-12-15T15:46:21;-8.20;65.80
39655;DHT22;25336;59.944;11.010;2022-12-15T15:48:50;-8.20;65.50
39655;DHT22;25336;59.944;11.010;2022-12-15T15:51:17;-8.30;65.30
39655;DHT22;25336;59.944;11.010;2022-12-15T15:53:44;-8.30;65.10
39655;DHT22;25336;59.944;11.010;2022-12-15T15:56:13;-8.30;64.90
39655;DHT22;25336;59.944;11.010;2022-12-15T15:58:39;-8.40;64.70
39655;DHT22;25336;59.944;11.010;2022-12-15T16:01:05;-8.40;64.60
39655;DHT22;25336;59.944;11.010;2022-12-15T16:03:31;-8.50;64.70
39655;DHT22;25336;59.944;11.010;2022-12-15T16:05:57;-8.50;64.80
39655;DHT22;25336;59.944;11.010;2022-12-15T16:08:26;-8.60;64.80
39655;DHT22;25336;59.944;11.010;2022-12-15T16:10:53;-8.60;65.10
39655;DHT22;25336;59.944;11.010;2022-12-15T16:13:20;-7.90;65.80
39655;DHT22;25336;59.944;11.010;2022-12-15T16:15:47;-8.60;65.70
39655;DHT22;25336;59.944;11.010;2022-12-15T16:18:13;-8.60;66.10
39655;DHT22;25336;59.944;11.010;2022-12-15T16:20:40;-7.30;68.10
39655;DHT22;25336;59.944;11.010;2022-12-15T16:25:42;-8.50;67.50
39655;DHT22;25336;59.944;11.010;2022-12-15T16:28:16;-8.40;67.90
39655;DHT22;25336;59.944;11.010;2022-12-15T16:30:43;-8.40;68.10
39655;DHT22;25336;59.944;11.010;2022-12-15T16:33:10;-8.30;68.30
39655;DHT22;25336;59.944;11.010;2022-12-15T16:35:38;-8.30;68.40
39655;DHT22;25336;59.944;11.010;2022-12-15T16:40:44;-8.20;68.10
39655;DHT22;25336;59.944;11.010;2022-12-15T16:43:15;-8.20;68.60
39655;DHT22;25336;59.944;11.010;2022-12-15T16:45:46;-8.20;67.60
39655;DHT22;25336;59.944;11.010;2022-12-15T16:48:13;-8.20;67.30
39655;DHT22;25336;59.944;11.010;2022-12-15T16:50:42;-8.30;66.90
39655;DHT22;25336;59.944;11.010;2022-12-15T16:53:15;-8.30;66.60
39655;DHT22;25336;59.944;11.010;2022-12-15T16:55:41;-9.70;65.20
39655;DHT22;25336;59.944;11.010;2022-12-15T16:58:12;-8.40;65.70
39655;DHT22;25336;59.944;11.010;2022-12-15T17:00:42;-8.40;65.40
39655;DHT22;25336;59.944;11.010;2022-12-15T17:03:13;-8.50;65.10
39655;DHT22;25336;59.944;11.010;2022-12-15T17:05:40;-8.60;64.80
39655;DHT22;25336;59.944;11.010;2022-12-15T17:08:13;-6.70;65.80
39655;DHT22;25336;59.944;11.010;2022-12-15T17:10:41;-8.70;64.40
39655;DHT22;25336;59.944;11.010;2022-12-15T17:13:30;-8.80;64.20
39655;DHT22;25336;59.944;11.010;2022-12-15T17:15:57;-8.80;64.00
39655;DHT22;25336;59.944;11.010;2022-12-15T17:18:24;-8.90;63.80
39655;DHT22;25336;59.944;11.010;2022-12-15T17:20:49;-9.00;63.80
39655;DHT22;25336;59.944;11.010;2022-12-15T17:23:19;-9.10;63.80
39655;DHT22;25336;59.944;11.010;2022-12-15T17:25:47;-9.20;63.70
39655;DHT22;25336;59.944;11.010;2022-12-15T17:28:19;-9.20;63.70
39655;DHT22;25336;59.944;11.010;2022-12-15T17:30:47;-9.30;63.60
39655;DHT22;25336;59.944;11.010;2022-12-15T17:33:21;-9.40;63.70